createdAt,value
2023-04-19T00:00:48.382Z,60.26
2023-04-19T00:03:15.702Z,59.84
2023-04-19T00:05:42.774Z,60.84
2023-04-19T00:08:09.565Z,59.05
2023-04-19T00:10:36.653Z,61.02
2023-04-19T00:13:03.412Z,59.76
2023-04-19T00:15:30.780Z,58.84
2023-04-19T00:17:57.670Z,58.63
2023-04-19T00:20:24.489Z,60.48
2023-04-19T00:22:51.110Z,61.40
2023-04-19T00:25:17.764Z,60.04
2023-04-19T00:27:44.423Z,60.00
2023-04-19T00:30:11.780Z,61.23
2023-04-19T00:32:38.468Z,61.70
2023-04-19T00:35:05.679Z,62.13
2023-04-19T00:37:32.449Z,61.93
2023-04-19T00:39:59.118Z,60.02
2023-04-19T00:42:26.356Z,60.67
2023-04-19T00:44:53.094Z,60.46
2023-04-19T00:47:20.532Z,60.55
2023-04-19T00:49:48.120Z,59.87
2023-04-19T00:52:16.310Z,59.61
2023-04-19T00:54:44.233Z,59.12
2023-04-19T00:57:13.335Z,60.20
2023-04-19T00:59:40.430Z,59.75
2023-04-19T01:02:07.587Z,59.68
2023-04-19T01:04:34.413Z,59.12
2023-04-19T01:07:02.225Z,59.01
2023-04-19T01:09:28.954Z,59.06
2023-04-19T01:11:57.551Z,58.80
2023-04-19T01:14:24.228Z,58.76
2023-04-19T01:16:51.346Z,59.43
2023-04-19T01:19:18.434Z,58.89
2023-04-19T01:21:46.446Z,59.92
2023-04-19T01:24:13.715Z,59.42
2023-04-19T01:26:41.078Z,59.72
2023-04-19T01:29:07.853Z,60.18
2023-04-19T01:31:34.709Z,60.23
2023-04-19T01:34:03.867Z,60.25
2023-04-19T01:36:31.118Z,60.29
2023-04-19T01:38:57.834Z,60.95
2023-04-19T01:41:27.413Z,60.98
2023-04-19T01:44:59.540Z,60.99
2023-04-19T01:47:26.940Z,61.07
2023-04-19T01:49:53.705Z,60.81
2023-04-19T01:52:20.400Z,60.45
2023-04-19T01:54:48.491Z,60.29
2023-04-19T01:57:16.698Z,60.27
2023-04-19T01:59:43.489Z,60.30
2023-04-19T02:02:10.335Z,60.54
2023-04-19T02:04:38.434Z,60.88
2023-04-19T02:07:06.031Z,61.19
2023-04-19T02:09:36.603Z,61.38
2023-04-19T02:12:04.275Z,61.45
2023-04-19T02:14:32.032Z,63.40
2023-04-19T02:16:58.764Z,61.92
2023-04-19T02:19:25.457Z,61.97
2023-04-19T02:21:53.707Z,63.27
2023-04-19T02:24:20.520Z,62.97
2023-04-19T02:26:47.166Z,62.41
2023-04-19T02:29:16.886Z,62.20
2023-04-19T02:31:45.293Z,62.93
2023-04-19T02:34:12.628Z,62.78
2023-04-19T02:36:39.482Z,62.82
2023-04-19T02:39:06.138Z,63.12
2023-04-19T02:41:32.812Z,62.69
2023-04-19T02:44:01.726Z,63.46
2023-04-19T02:46:28.602Z,62.44
2023-04-19T02:48:55.373Z,63.25
2023-04-19T02:51:22.496Z,63.38
2023-04-19T02:53:49.502Z,63.41
2023-04-19T02:56:16.740Z,63.08
2023-04-19T02:58:43.403Z,62.81
2023-04-19T03:01:10.905Z,64.96
2023-04-19T03:03:37.864Z,64.22
2023-04-19T03:06:05.210Z,63.78
2023-04-19T03:08:33.044Z,64.19
2023-04-19T03:10:59.836Z,63.75
2023-04-19T03:13:26.506Z,64.45
2023-04-19T03:15:53.257Z,66.11
2023-04-19T03:18:22.765Z,66.11
2023-04-19T03:20:51.104Z,67.20
2023-04-19T03:23:17.804Z,66.37
2023-04-19T03:25:46.404Z,69.01
2023-04-19T03:28:23.397Z,66.72
2023-04-19T03:31:10.441Z,66.66
2023-04-19T03:33:37.443Z,66.77
2023-04-19T03:36:04.763Z,67.63
2023-04-19T03:38:31.592Z,66.38
2023-04-19T03:40:59.598Z,67.47
2023-04-19T03:43:29.990Z,68.40
2023-04-19T03:45:56.842Z,67.78
2023-04-19T03:48:23.741Z,66.82
2023-04-19T03:50:50.419Z,66.98
2023-04-19T03:53:19.370Z,66.57
2023-04-19T03:55:46.005Z,65.99
2023-04-19T03:58:12.890Z,66.49
2023-04-19T04:00:48.421Z,67.42
2023-04-19T04:03:15.682Z,66.61
2023-04-19T04:05:42.598Z,66.46
2023-04-19T04:08:09.696Z,66.97
2023-04-19T04:10:36.749Z,66.56
2023-04-19T04:13:04.089Z,66.22
2023-04-19T04:15:39.774Z,66.29
2023-04-19T04:18:09.228Z,66.61
2023-04-19T04:20:36.373Z,66.31
2023-04-19T04:23:07.621Z,65.77
2023-04-19T04:25:37.609Z,65.13
2023-04-19T04:28:07.500Z,65.59
2023-04-19T04:30:35.046Z,66.23
2023-04-19T04:33:03.238Z,65.79
2023-04-19T04:35:30.693Z,65.82
2023-04-19T04:38:17.490Z,66.91
2023-04-19T04:40:53.594Z,68.05
2023-04-19T04:43:25.736Z,66.10
2023-04-19T04:45:55.660Z,65.93
2023-04-19T04:48:23.537Z,66.38
2023-04-19T04:50:50.427Z,65.45
2023-04-19T04:53:17.739Z,64.79
2023-04-19T04:55:45.868Z,65.46
2023-04-19T04:58:15.199Z,64.28
2023-04-19T05:01:04.249Z,64.20
2023-04-19T05:03:36.249Z,64.13
2023-04-19T05:06:06.220Z,63.95
2023-04-19T05:08:33.016Z,63.08
2023-04-19T05:11:12.890Z,63.46
2023-04-19T05:13:39.690Z,64.29
2023-04-19T05:16:06.835Z,63.02
2023-04-19T05:18:34.666Z,62.01
2023-04-19T05:21:01.551Z,63.01
2023-04-19T05:23:31.824Z,62.90
2023-04-19T05:25:58.477Z,63.47
2023-04-19T05:28:27.553Z,62.71
2023-04-19T05:31:06.479Z,63.45
2023-04-19T05:33:40.230Z,62.97
2023-04-19T05:36:07.961Z,63.38
2023-04-19T05:38:34.653Z,63.77
2023-04-19T05:41:03.559Z,64.15
2023-04-19T05:43:30.392Z,62.74
2023-04-19T05:45:57.960Z,62.75
2023-04-19T05:48:25.717Z,62.77
2023-04-19T05:51:30.558Z,62.18
2023-04-19T05:54:03.547Z,61.90
2023-04-19T05:56:31.081Z,61.61
2023-04-19T06:02:58.310Z,61.86
2023-04-19T06:05:25.729Z,60.59
2023-04-19T06:10:31.268Z,60.39
2023-04-19T06:13:04.760Z,59.07
2023-04-19T06:16:41.339Z,59.84
2023-04-19T06:19:08.138Z,57.66
2023-04-19T06:21:35.122Z,59.23
2023-04-19T06:24:02.031Z,57.12
2023-04-19T06:26:28.714Z,57.29
2023-04-19T06:28:55.614Z,57.90
2023-04-19T06:31:22.541Z,58.22
2023-04-19T06:33:49.692Z,57.76
2023-04-19T06:36:16.719Z,58.68
2023-04-19T06:38:44.651Z,57.42
2023-04-19T06:41:11.465Z,57.12
2023-04-19T06:43:40.995Z,56.41
2023-04-19T06:46:08.759Z,55.83
2023-04-19T06:48:35.885Z,56.27
2023-04-19T06:51:03.058Z,55.57
2023-04-19T06:53:29.829Z,54.67
2023-04-19T06:55:59.915Z,56.32
2023-04-19T06:58:27.566Z,55.58
2023-04-19T07:00:54.758Z,52.94
2023-04-19T07:03:21.980Z,52.38
2023-04-19T07:05:49.220Z,52.17
2023-04-19T07:08:16.238Z,51.77
2023-04-19T07:10:43.983Z,51.71
2023-04-19T07:13:12.090Z,54.17
2023-04-19T07:15:39.089Z,51.57
2023-04-19T07:18:06.588Z,50.72
2023-04-19T07:20:34.106Z,51.49
2023-04-19T07:23:01.097Z,50.38
2023-04-19T07:25:28.154Z,49.28
2023-04-19T07:28:16.063Z,50.42
2023-04-19T07:30:47.572Z,50.34
2023-04-19T07:33:14.613Z,49.39
2023-04-19T07:35:41.693Z,49.76
2023-04-19T07:38:09.272Z,48.14
2023-04-19T07:40:36.415Z,47.28
2023-04-19T07:43:03.487Z,45.87
2023-04-19T07:45:31.427Z,45.18
2023-04-19T07:47:59.362Z,46.44
2023-04-19T07:50:27.379Z,45.96
2023-04-19T07:57:20.186Z,46.64
2023-04-19T07:59:46.919Z,47.32
2023-04-19T08:02:14.043Z,46.87
2023-04-19T08:04:41.314Z,47.50
2023-04-19T08:07:09.485Z,46.79
2023-04-19T08:09:37.949Z,47.64
2023-04-19T08:12:04.747Z,47.51
2023-04-19T08:14:40.493Z,46.31
2023-04-19T08:20:36.948Z,47.82
2023-04-19T08:23:18.150Z,47.23
2023-04-19T08:25:47.822Z,45.38
2023-04-19T08:28:14.403Z,45.69
2023-04-19T08:30:41.390Z,46.42
2023-04-19T08:33:08.350Z,45.16
2023-04-19T08:35:36.205Z,45.13
2023-04-19T08:38:04.615Z,45.10
2023-04-19T08:40:31.723Z,45.70
2023-04-19T08:42:58.851Z,44.33
2023-04-19T08:45:29.008Z,46.15
2023-04-19T08:48:01.540Z,46.58
2023-04-19T08:53:09.084Z,46.39
2023-04-19T08:56:06.787Z,46.54
2023-04-19T08:58:56.875Z,45.57
2023-04-19T09:01:33.769Z,46.46
2023-04-19T09:04:26.397Z,46.49
2023-04-19T09:06:52.516Z,44.67
2023-04-19T09:11:51.599Z,45.55
2023-04-19T09:14:20.272Z,45.93
2023-04-19T09:16:47.304Z,44.86
2023-04-19T09:19:23.008Z,46.02
2023-04-19T09:21:53.054Z,45.74
2023-04-19T09:24:19.845Z,45.89
2023-04-19T09:26:57.882Z,45.70
2023-04-19T09:29:25.196Z,46.52
2023-04-19T09:31:59.396Z,45.92
2023-04-19T09:34:28.234Z,46.70
2023-04-19T09:37:08.466Z,46.49
2023-04-19T09:39:40.004Z,45.56
2023-04-19T09:42:07.177Z,44.81
2023-04-19T09:45:02.214Z,44.06
2023-04-19T09:47:26.311Z,44.70
2023-04-19T09:50:21.037Z,45.04
2023-04-19T09:52:50.104Z,44.63
2023-04-19T09:57:48.508Z,43.75
2023-04-19T10:00:15.897Z,43.54
2023-04-19T10:02:43.569Z,43.42
2023-04-19T10:05:20.708Z,44.33
2023-04-19T10:07:50.037Z,43.88
2023-04-19T10:10:20.918Z,42.33
2023-04-19T10:15:24.307Z,42.96
2023-04-19T10:17:51.504Z,43.09
2023-04-19T10:21:02.042Z,41.26
2023-04-19T10:23:29.791Z,41.05
2023-04-19T10:26:00.845Z,40.87
2023-04-19T10:28:31.121Z,42.18
2023-04-19T10:31:02.554Z,41.14
2023-04-19T10:33:36.025Z,39.97
2023-04-19T10:36:03.063Z,39.46
2023-04-19T10:38:44.642Z,38.49
2023-04-19T10:41:18.625Z,39.15
2023-04-19T10:43:48.032Z,39.10
2023-04-19T10:46:16.646Z,38.94
2023-04-19T10:49:00.135Z,38.93
2023-04-19T10:51:28.979Z,38.16
2023-04-19T10:53:57.550Z,37.88
2023-04-19T10:56:33.518Z,37.27
2023-04-19T10:59:07.645Z,37.72
2023-04-19T11:01:37.389Z,36.26
2023-04-19T11:04:04.813Z,37.50
2023-04-19T11:06:32.658Z,35.53
2023-04-19T11:09:00.875Z,35.59
2023-04-19T11:11:27.957Z,36.83
2023-04-19T11:14:00.579Z,34.69
2023-04-19T11:16:41.989Z,34.25
2023-04-19T11:19:19.788Z,34.57
2023-04-19T11:21:47.653Z,33.74
2023-04-19T11:24:16.403Z,34.03
2023-04-19T11:26:46.550Z,33.01
2023-04-19T11:29:13.505Z,33.68
2023-04-19T11:31:40.787Z,32.80
2023-04-19T11:34:07.549Z,32.66
2023-04-19T11:36:36.828Z,31.34
2023-04-19T11:39:06.826Z,31.89
2023-04-19T11:41:40.486Z,31.89
2023-04-19T11:44:15.342Z,31.34
2023-04-19T11:46:43.084Z,29.81
2023-04-19T11:49:09.760Z,29.43
2023-04-19T11:51:41.806Z,28.60
2023-04-19T11:54:16.945Z,29.10
2023-04-19T11:57:10.179Z,31.00
2023-04-19T11:59:37.032Z,29.32
2023-04-19T12:02:12.228Z,27.81
2023-04-19T12:04:39.957Z,28.89
2023-04-19T12:07:07.391Z,29.84
2023-04-19T12:09:35.913Z,28.10
2023-04-19T12:12:03.127Z,28.06
2023-04-19T12:14:30.599Z,28.35
2023-04-19T12:17:23.906Z,29.06
2023-04-19T12:20:41.255Z,28.03
2023-04-19T12:23:11.282Z,28.01
2023-04-19T12:25:38.082Z,26.87
2023-04-19T12:28:05.182Z,27.49
2023-04-19T12:30:32.285Z,28.24
2023-04-19T12:32:59.471Z,27.58
2023-04-19T12:35:29.711Z,27.61
2023-04-19T12:37:58.464Z,27.31
2023-04-19T12:40:26.500Z,28.28
2023-04-19T12:42:54.089Z,27.04
2023-04-19T12:45:21.384Z,26.77
2023-04-19T12:47:49.209Z,27.59
2023-04-19T12:50:16.530Z,27.09
2023-04-19T12:52:44.631Z,27.58
2023-04-19T12:55:11.836Z,27.17
2023-04-19T12:57:39.010Z,28.55
2023-04-19T13:00:07.370Z,29.77
2023-04-19T13:02:35.174Z,28.21
2023-04-19T13:05:02.559Z,29.31
2023-04-19T13:07:29.325Z,28.39
2023-04-19T13:09:56.831Z,28.26
2023-04-19T13:12:24.112Z,28.15
2023-04-19T13:14:52.392Z,28.67
2023-04-19T13:17:20.005Z,28.17
2023-04-19T13:19:47.440Z,28.55
2023-04-19T13:22:14.263Z,28.02
2023-04-19T13:24:41.150Z,29.13
2023-04-19T13:27:09.043Z,29.26
2023-04-19T13:29:36.162Z,28.68
2023-04-19T13:32:03.077Z,29.14
2023-04-19T13:34:29.746Z,28.33
2023-04-19T13:36:57.667Z,29.27
2023-04-19T13:39:24.488Z,29.79
2023-04-19T13:41:51.714Z,29.56
2023-04-19T13:44:18.910Z,29.55
2023-04-19T13:46:47.113Z,30.10
2023-04-19T13:49:13.836Z,29.97
2023-04-19T13:51:49.549Z,30.33
2023-04-19T13:54:18.236Z,30.48
2023-04-19T13:56:45.677Z,30.83
2023-04-19T13:59:12.727Z,29.97
2023-04-19T14:01:39.583Z,30.88
2023-04-19T14:04:06.659Z,30.10
2023-04-19T14:06:33.676Z,29.64
2023-04-19T14:09:00.640Z,30.32
2023-04-19T14:11:27.534Z,30.20
2023-04-19T14:13:54.327Z,30.54
2023-04-19T14:16:24.363Z,30.83
2023-04-19T14:18:52.242Z,31.03
2023-04-19T14:21:19.272Z,30.34
2023-04-19T14:23:46.024Z,30.11
2023-04-19T14:26:12.759Z,30.44
2023-04-19T14:28:39.587Z,30.05
2023-04-19T14:31:06.650Z,30.28
2023-04-19T14:33:33.468Z,31.71
2023-04-19T14:36:01.107Z,31.26
2023-04-19T14:38:28.043Z,31.49
2023-04-19T14:41:16.724Z,32.51
2023-04-19T14:43:43.734Z,30.46
2023-04-19T14:46:10.657Z,29.92
2023-04-19T14:48:37.520Z,30.77
2023-04-19T14:51:04.331Z,31.23
2023-04-19T14:53:33.475Z,30.98
2023-04-19T14:56:04.067Z,31.68
2023-04-19T14:58:31.078Z,30.76
2023-04-19T15:00:58.976Z,30.68
2023-04-19T15:03:26.215Z,29.95
2023-04-19T15:05:53.386Z,30.81
2023-04-19T15:08:30.217Z,30.02
2023-04-19T15:10:57.880Z,31.37
2023-04-19T15:13:24.782Z,30.87
2023-04-19T15:15:51.490Z,30.32
2023-04-19T15:18:18.302Z,30.81
2023-04-19T15:20:45.042Z,30.52
2023-04-19T15:23:17.981Z,30.67
2023-04-19T15:25:44.813Z,30.20
2023-04-19T15:28:11.597Z,30.75
2023-04-19T15:30:38.297Z,30.07
2023-04-19T15:33:05.519Z,30.37
2023-04-19T15:35:32.266Z,29.33
2023-04-19T15:37:58.919Z,29.77
2023-04-19T15:40:25.761Z,30.41
2023-04-19T15:42:52.522Z,31.36
2023-04-19T15:45:19.320Z,31.82
2023-04-19T15:47:46.067Z,30.48
2023-04-19T15:54:38.666Z,31.08
2023-04-19T15:57:05.404Z,30.35
2023-04-19T15:59:32.009Z,30.37
2023-04-19T16:01:59.033Z,30.12
2023-04-19T16:04:26.174Z,29.01
2023-04-19T16:06:53.211Z,29.63
2023-04-19T16:09:20.485Z,29.85
2023-04-19T16:11:47.136Z,29.60
2023-04-19T16:14:13.917Z,29.62
2023-04-19T16:16:40.783Z,29.49
2023-04-19T16:19:07.514Z,30.70
2023-04-19T16:21:34.250Z,30.08
2023-04-19T16:24:00.981Z,30.39
2023-04-19T16:26:28.275Z,29.99
2023-04-19T16:28:54.980Z,30.19
2023-04-19T16:31:21.858Z,30.34
2023-04-19T16:33:48.597Z,29.45
2023-04-19T16:36:15.495Z,30.04
2023-04-19T16:38:42.473Z,30.81
2023-04-19T16:41:09.211Z,30.10
2023-04-19T16:43:36.932Z,30.76
2023-04-19T16:46:04.108Z,31.00
2023-04-19T16:48:30.945Z,30.14
2023-04-19T16:50:57.896Z,31.10
2023-04-19T16:53:24.541Z,30.01
2023-04-19T16:55:51.313Z,28.84
2023-04-19T16:58:17.999Z,29.06
2023-04-19T17:00:44.749Z,29.53
2023-04-19T17:03:11.880Z,29.99
2023-04-19T17:05:38.757Z,30.64
2023-04-19T17:08:05.845Z,30.38
2023-04-19T17:10:32.592Z,30.81
2023-04-19T17:12:59.254Z,31.20
2023-04-19T17:15:26.102Z,30.53
2023-04-19T17:17:52.828Z,31.27
2023-04-19T17:20:19.694Z,30.62
2023-04-19T17:22:46.532Z,30.51
2023-04-19T17:25:13.362Z,30.44
2023-04-19T17:27:40.263Z,29.71
2023-04-19T17:30:07.839Z,30.05
2023-04-19T17:32:34.842Z,29.69
2023-04-19T17:35:01.486Z,30.09
2023-04-19T17:37:28.395Z,30.90
2023-04-19T17:39:55.404Z,30.82
2023-04-19T17:42:23.802Z,30.79
2023-04-19T17:44:50.548Z,30.22
2023-04-19T17:47:19.211Z,30.79
2023-04-19T17:49:46.386Z,30.63
2023-04-19T17:52:13.539Z,31.01
2023-04-19T17:54:40.270Z,30.67
2023-04-19T17:57:07.018Z,31.28
2023-04-19T17:59:33.680Z,31.66
2023-04-19T18:02:00.536Z,32.13
2023-04-19T18:04:27.418Z,32.02
2023-04-19T18:06:54.153Z,32.33
2023-04-19T18:09:20.808Z,33.04
2023-04-19T18:11:47.868Z,33.56
2023-04-19T18:14:15.385Z,33.55
2023-04-19T18:16:42.269Z,33.55
2023-04-19T18:19:08.993Z,33.44
2023-04-19T18:21:35.689Z,34.17
2023-04-19T18:24:02.329Z,34.31
2023-04-19T18:26:42.539Z,34.77
2023-04-19T18:29:09.843Z,34.90
2023-04-19T18:31:36.569Z,34.68
2023-04-19T18:34:03.417Z,36.50
2023-04-19T18:36:30.148Z,37.59
2023-04-19T18:38:56.835Z,37.28
2023-04-19T18:41:24.012Z,39.79
2023-04-19T18:44:13.654Z,38.46
2023-04-19T18:46:37.491Z,37.34
2023-04-19T18:49:04.169Z,38.57
2023-04-19T18:51:31.367Z,38.99
2023-04-19T18:53:57.968Z,39.39
2023-04-19T18:56:54.248Z,41.01
2023-04-19T18:59:11.536Z,40.11
2023-04-19T19:01:38.599Z,39.31
2023-04-19T19:06:35.108Z,39.98
2023-04-19T19:09:01.856Z,40.31
2023-04-19T19:11:52.006Z,42.59
2023-04-19T19:14:15.368Z,42.46
2023-04-19T19:16:51.508Z,43.13
2023-04-19T19:19:20.698Z,43.75
2023-04-19T19:21:47.503Z,43.98
2023-04-19T19:24:14.130Z,42.99
2023-04-19T19:26:40.750Z,44.63
2023-04-19T19:29:09.202Z,45.67
2023-04-19T19:31:36.712Z,45.10
2023-04-19T19:34:22.567Z,45.41
2023-04-19T19:36:51.090Z,45.05
2023-04-19T19:39:18.002Z,46.60
2023-04-19T19:44:14.956Z,47.01
2023-04-19T19:46:41.683Z,47.49
2023-04-19T19:52:29.145Z,48.94
2023-04-19T19:54:56.250Z,48.97
2023-04-19T19:59:56.367Z,49.29
2023-04-19T20:02:24.591Z,50.03
2023-04-19T20:04:51.795Z,49.61
2023-04-19T20:07:37.239Z,50.84
2023-04-19T20:10:12.171Z,51.08
2023-04-19T20:12:42.206Z,51.08
2023-04-19T20:15:11.710Z,51.53
2023-04-19T20:17:40.502Z,52.08
2023-04-19T20:20:11.640Z,52.34
2023-04-19T20:22:38.574Z,52.62
2023-04-19T20:25:05.923Z,53.04
2023-04-19T20:27:33.479Z,53.01
2023-04-19T20:30:01.032Z,53.55
2023-04-19T20:32:27.869Z,53.59
2023-04-19T20:34:54.585Z,53.10
2023-04-19T20:37:23.612Z,54.33
2023-04-19T20:39:50.611Z,55.29
2023-04-19T20:42:17.702Z,54.61
2023-04-19T20:44:44.637Z,56.32
2023-04-19T20:47:13.374Z,55.97
2023-04-19T20:49:41.337Z,55.75
2023-04-19T20:52:08.354Z,55.01
2023-04-19T20:54:36.584Z,55.82
2023-04-19T20:57:04.732Z,56.26
2023-04-19T20:59:34.306Z,57.49
2023-04-19T21:02:01.041Z,57.32
2023-04-19T21:04:28.027Z,56.34
2023-04-19T21:06:54.737Z,57.30
2023-04-19T21:09:21.411Z,57.72
2023-04-19T21:11:48.325Z,57.30
2023-04-19T21:14:15.029Z,57.78
2023-04-19T21:16:41.756Z,57.18
2023-04-19T21:19:08.690Z,56.77
2023-04-19T21:21:35.526Z,57.37
2023-04-19T21:24:02.417Z,58.05
2023-04-19T21:26:29.101Z,57.65
2023-04-19T21:28:55.853Z,57.92
2023-04-19T21:31:22.586Z,57.41
2023-04-19T21:33:49.539Z,58.39
2023-04-19T21:36:16.297Z,57.70
2023-04-19T21:38:43.067Z,58.49
2023-04-19T21:41:10.859Z,58.58
2023-04-19T21:43:37.689Z,58.43
2023-04-19T21:46:05.312Z,58.69
2023-04-19T21:48:32.208Z,58.94
2023-04-19T21:50:59.963Z,59.77
2023-04-19T21:53:26.685Z,58.79
2023-04-19T21:55:53.385Z,58.60
2023-04-19T21:58:20.055Z,59.55
2023-04-19T22:00:47.724Z,59.14
2023-04-19T22:03:14.836Z,58.57
2023-04-19T22:05:41.636Z,59.64
2023-04-19T22:08:08.272Z,59.50
2023-04-19T22:10:35.061Z,59.07
2023-04-19T22:13:03.463Z,59.08
2023-04-19T22:15:30.663Z,59.03
2023-04-19T22:17:58.315Z,58.02
2023-04-19T22:20:27.767Z,58.27
2023-04-19T22:22:55.957Z,59.13
2023-04-19T22:25:22.679Z,60.02
2023-04-19T22:27:49.301Z,59.23
2023-04-19T22:30:16.309Z,58.81
2023-04-19T22:32:43.079Z,58.27
2023-04-19T22:35:09.824Z,58.66
2023-04-19T22:37:36.592Z,59.35
2023-04-19T22:40:05.850Z,59.29
2023-04-19T22:42:32.576Z,59.76
2023-04-19T22:44:59.220Z,60.70
2023-04-19T22:47:26.320Z,60.31
2023-04-19T22:49:54.201Z,60.32
2023-04-19T22:52:20.998Z,58.38
2023-04-19T22:54:47.617Z,59.52
2023-04-19T22:57:14.467Z,58.89
2023-04-19T22:59:41.118Z,59.54
2023-04-19T23:02:08.061Z,59.80
2023-04-19T23:04:35.425Z,60.42
2023-04-19T23:07:03.307Z,62.33
2023-04-19T23:09:30.027Z,61.58
2023-04-19T23:11:58.594Z,61.65
2023-04-19T23:14:25.315Z,60.50
2023-04-19T23:16:54.754Z,58.32
2023-04-19T23:19:22.791Z,60.08
2023-04-19T23:21:52.545Z,60.24
2023-04-19T23:24:19.453Z,59.46
2023-04-19T23:26:46.136Z,59.67
2023-04-19T23:29:12.727Z,60.00
2023-04-19T23:31:39.511Z,59.40
2023-04-19T23:34:06.161Z,59.88
2023-04-19T23:36:32.775Z,58.95
2023-04-19T23:38:59.404Z,58.87
2023-04-19T23:41:26.121Z,59.65
2023-04-19T23:43:52.753Z,59.56
2023-04-19T23:46:19.483Z,60.08
2023-04-19T23:48:46.524Z,60.21
2023-04-19T23:51:13.373Z,59.82
2023-04-19T23:53:40.464Z,59.01
2023-04-19T23:56:07.571Z,60.06
2023-04-19T23:58:34.270Z,58.99
